createdAt,value
2024-03-24T00:00:43.256Z,7.29
2024-03-24T00:02:43.323Z,7.26
2024-03-24T00:04:43.308Z,7.30
2024-03-24T00:06:43.280Z,7.45
2024-03-24T00:08:43.284Z,7.61
2024-03-24T00:10:43.333Z,7.49
2024-03-24T00:12:43.316Z,7.61
2024-03-24T00:14:43.299Z,7.51
2024-03-24T00:17:43.334Z,7.43
2024-03-24T00:19:43.295Z,7.32
2024-03-24T00:21:43.305Z,7.26
2024-03-24T00:23:43.305Z,7.25
2024-03-24T00:25:43.360Z,7.12
2024-03-24T00:27:43.358Z,7.12
2024-03-24T00:29:43.353Z,7.20
2024-03-24T00:31:43.337Z,7.27
2024-03-24T00:33:43.362Z,7.38
2024-03-24T00:35:43.395Z,7.47
2024-03-24T00:37:43.340Z,7.55
2024-03-24T00:39:45.536Z,7.71
2024-03-24T00:41:43.350Z,7.67
2024-03-24T00:43:43.396Z,7.64
2024-03-24T00:45:43.395Z,7.74
2024-03-24T00:47:43.388Z,7.68
2024-03-24T00:49:43.374Z,7.68
2024-03-24T00:52:43.392Z,7.67
2024-03-24T00:54:43.397Z,7.64
2024-03-24T00:56:43.431Z,7.72
2024-03-24T00:58:43.443Z,7.79
2024-03-24T01:00:43.405Z,7.81
2024-03-24T01:02:43.397Z,7.55
2024-03-24T01:04:43.459Z,7.47
2024-03-24T01:06:43.451Z,7.43
2024-03-24T01:08:43.413Z,7.48
2024-03-24T01:10:43.438Z,7.55
2024-03-24T01:12:43.459Z,7.57
2024-03-24T01:14:43.469Z,7.47
2024-03-24T01:16:43.438Z,7.53
2024-03-24T01:18:43.453Z,7.41
2024-03-24T01:20:43.452Z,7.27
2024-03-24T01:22:43.489Z,7.25
2024-03-24T01:24:43.494Z,7.13
2024-03-24T01:26:43.459Z,7.19
2024-03-24T01:28:43.466Z,7.38
2024-03-24T01:30:43.490Z,7.53
2024-03-24T01:32:43.534Z,7.46
2024-03-24T01:35:43.480Z,7.48
2024-03-24T01:37:43.527Z,7.39
2024-03-24T01:39:43.520Z,6.95
2024-03-24T01:41:43.503Z,6.93
2024-03-24T01:43:43.519Z,6.89
2024-03-24T01:45:43.544Z,6.91
2024-03-24T01:47:43.554Z,6.94
2024-03-24T01:49:43.536Z,6.61
2024-03-24T01:51:43.536Z,6.32
2024-03-24T01:53:43.563Z,6.26
2024-03-24T01:55:43.586Z,6.37
2024-03-24T01:57:43.536Z,6.51
2024-03-24T01:59:43.552Z,6.66
2024-03-24T02:01:43.547Z,6.65
2024-03-24T02:03:43.592Z,6.73
2024-03-24T02:05:43.614Z,6.48
2024-03-24T02:07:43.569Z,6.37
2024-03-24T02:09:43.559Z,6.37
2024-03-24T02:12:43.589Z,6.31
2024-03-24T02:14:43.592Z,6.42
2024-03-24T02:16:43.643Z,6.41
2024-03-24T02:18:46.507Z,6.45
2024-03-24T02:20:43.613Z,6.53
2024-03-24T02:24:43.684Z,6.61
2024-03-24T02:26:43.694Z,6.72
2024-03-24T02:28:43.618Z,6.60
2024-03-24T02:30:43.630Z,6.43
2024-03-24T02:32:43.704Z,6.43
2024-03-24T02:34:43.697Z,6.56
2024-03-24T02:36:43.631Z,6.55
2024-03-24T02:38:43.643Z,6.69
2024-03-24T02:40:44.673Z,6.80
2024-03-24T02:42:43.714Z,6.92
2024-03-24T02:44:43.701Z,7.03
2024-03-24T02:46:43.655Z,7.15
2024-03-24T02:48:43.659Z,7.26
2024-03-24T02:50:43.736Z,7.26
2024-03-24T02:53:43.694Z,7.27
2024-03-24T02:55:43.714Z,7.16
2024-03-24T02:57:43.744Z,6.97
2024-03-24T02:59:43.684Z,6.86
2024-03-24T03:02:43.728Z,6.82
2024-03-24T03:04:43.723Z,6.76
2024-03-24T03:06:43.711Z,6.73
2024-03-24T03:08:43.741Z,6.72
2024-03-24T03:10:43.757Z,6.35
2024-03-24T03:12:43.732Z,6.38
2024-03-24T03:14:43.729Z,6.45
2024-03-24T03:16:43.796Z,6.55
2024-03-24T03:18:43.778Z,6.70
2024-03-24T03:21:43.788Z,6.78
2024-03-24T03:23:43.777Z,6.78
2024-03-24T03:25:43.770Z,6.63
2024-03-24T03:27:43.765Z,6.66
2024-03-24T03:29:43.779Z,6.75
2024-03-24T03:31:43.809Z,6.78
2024-03-24T03:33:43.771Z,6.79
2024-03-24T03:35:43.792Z,6.73
2024-03-24T03:37:43.809Z,6.61
2024-03-24T03:39:43.830Z,6.66
2024-03-24T03:41:43.829Z,6.68
2024-03-24T03:43:43.804Z,6.81
2024-03-24T03:45:43.812Z,6.97
2024-03-24T03:47:43.863Z,7.10
2024-03-24T03:49:43.837Z,7.15
2024-03-24T03:51:43.801Z,7.22
2024-03-24T03:53:43.822Z,7.12
2024-03-24T03:55:43.861Z,7.04
2024-03-24T03:57:43.869Z,6.94
2024-03-24T03:59:43.854Z,6.74
2024-03-24T04:01:43.843Z,6.42
2024-03-24T04:03:43.839Z,6.19
2024-03-24T04:05:43.888Z,6.16
2024-03-24T04:07:43.879Z,6.06
2024-03-24T04:09:43.893Z,5.84
2024-03-24T04:11:43.869Z,5.77
2024-03-24T04:13:43.877Z,5.71
2024-03-24T04:15:43.913Z,5.70
2024-03-24T04:17:43.897Z,5.52
2024-03-24T04:19:43.895Z,5.33
2024-03-24T04:21:43.883Z,5.20
2024-03-24T04:23:43.925Z,5.30
2024-03-24T04:25:43.951Z,5.50
2024-03-24T04:27:43.915Z,5.68
2024-03-24T04:29:43.913Z,5.86
2024-03-24T04:31:43.966Z,6.09
2024-03-24T04:33:43.952Z,6.24
2024-03-24T04:35:43.939Z,6.37
2024-03-24T04:37:43.915Z,6.51
2024-03-24T04:40:43.964Z,6.58
2024-03-24T04:42:43.956Z,6.53
2024-03-24T04:44:43.973Z,6.32
2024-03-24T04:47:43.965Z,6.29
2024-03-24T04:49:43.982Z,6.39
2024-03-24T04:51:43.992Z,6.52
2024-03-24T04:53:43.984Z,6.60
2024-03-24T04:55:43.974Z,6.71
2024-03-24T04:57:44.009Z,6.80
2024-03-24T04:59:44.029Z,6.84
2024-03-24T05:01:43.978Z,6.94
2024-03-24T05:03:44.000Z,7.00
2024-03-24T05:05:44.031Z,7.07
2024-03-24T05:07:44.035Z,7.12
2024-03-24T05:09:44.005Z,7.12
2024-03-24T05:11:44.002Z,7.17
2024-03-24T05:13:44.022Z,7.13
2024-03-24T05:15:44.024Z,7.02
2024-03-24T05:17:44.062Z,6.96
2024-03-24T05:19:44.036Z,7.07
2024-03-24T05:21:44.034Z,7.18
2024-03-24T05:23:44.084Z,7.24
2024-03-24T05:25:44.099Z,7.22
2024-03-24T05:27:44.049Z,7.06
2024-03-24T05:29:44.052Z,7.01
2024-03-24T05:32:44.061Z,6.99
2024-03-24T05:34:44.051Z,6.93
2024-03-24T05:36:44.107Z,6.81
2024-03-24T05:38:44.112Z,6.72
2024-03-24T05:40:44.087Z,6.53
2024-03-24T05:42:44.082Z,6.38
2024-03-24T05:44:44.093Z,5.91
2024-03-24T05:46:44.138Z,5.54
2024-03-24T05:48:44.158Z,5.35
2024-03-24T05:50:44.098Z,5.35
2024-03-24T05:52:44.121Z,5.30
2024-03-24T05:55:44.134Z,5.25
2024-03-24T05:57:44.137Z,5.32
2024-03-24T05:59:44.182Z,5.25
2024-03-24T06:01:45.760Z,5.12
2024-03-24T06:03:44.156Z,4.97
2024-03-24T06:05:44.151Z,4.90
2024-03-24T06:07:44.149Z,4.79
2024-03-24T06:09:44.200Z,4.70
2024-03-24T06:12:44.187Z,4.57
2024-03-24T06:14:44.200Z,4.77
2024-03-24T06:16:44.170Z,4.89
2024-03-24T06:18:44.188Z,4.95
2024-03-24T06:20:44.187Z,4.99
2024-03-24T06:22:44.231Z,4.79
2024-03-24T06:24:44.233Z,4.86
2024-03-24T06:26:44.185Z,4.80
2024-03-24T06:28:44.174Z,4.81
2024-03-24T06:30:44.246Z,4.91
2024-03-24T06:32:44.238Z,5.00
2024-03-24T06:34:44.205Z,5.27
2024-03-24T06:36:44.219Z,5.46
2024-03-24T06:38:44.232Z,5.52
2024-03-24T06:40:44.274Z,5.60
2024-03-24T06:42:44.256Z,5.61
2024-03-24T06:44:44.229Z,5.58
2024-03-24T06:46:44.245Z,5.57
2024-03-24T06:48:44.273Z,5.74
2024-03-24T06:50:44.273Z,5.86
2024-03-24T06:52:44.273Z,5.92
2024-03-24T06:54:44.245Z,6.08
2024-03-24T06:56:44.297Z,6.23
2024-03-24T06:58:44.310Z,6.32
2024-03-24T07:01:44.306Z,6.40
2024-03-24T07:03:44.325Z,6.49
2024-03-24T07:05:44.282Z,6.48
2024-03-24T07:07:44.293Z,6.65
2024-03-24T07:09:44.333Z,7.05
2024-03-24T07:11:44.320Z,8.06
2024-03-24T07:14:44.353Z,8.20
2024-03-24T07:17:44.316Z,8.10
2024-03-24T07:19:44.347Z,9.90
2024-03-24T07:21:44.367Z,12.30
2024-03-24T07:23:44.333Z,12.05
2024-03-24T07:25:44.344Z,15.09
2024-03-24T07:27:44.375Z,16.42
2024-03-24T07:29:44.386Z,17.35
2024-03-24T07:31:44.365Z,16.42
2024-03-24T07:33:44.342Z,15.39
2024-03-24T07:35:44.419Z,14.52
2024-03-24T07:37:44.389Z,13.02
2024-03-24T07:39:44.368Z,12.16
2024-03-24T07:41:46.253Z,11.66
2024-03-24T07:43:44.365Z,13.40
2024-03-24T07:45:44.416Z,14.46
2024-03-24T07:47:44.442Z,14.25
2024-03-24T07:49:44.393Z,13.74
2024-03-24T07:51:44.416Z,12.90
2024-03-24T07:53:44.439Z,12.32
2024-03-24T07:55:44.434Z,11.74
2024-03-24T07:57:44.427Z,11.37
2024-03-24T07:59:44.421Z,11.25
2024-03-24T08:01:44.457Z,11.50
2024-03-24T08:03:44.458Z,11.08
2024-03-24T08:05:44.419Z,10.49
2024-03-24T08:07:44.428Z,9.94
2024-03-24T08:09:44.447Z,9.62
2024-03-24T08:11:44.503Z,9.47
2024-03-24T08:13:44.482Z,10.68
2024-03-24T08:15:44.470Z,11.50
2024-03-24T08:17:44.478Z,14.72
2024-03-24T08:19:44.504Z,13.52
2024-03-24T08:21:44.525Z,12.70
2024-03-24T08:23:44.471Z,13.17
2024-03-24T08:25:44.490Z,12.42
2024-03-24T08:27:44.516Z,11.86
2024-03-24T08:29:44.538Z,11.24
2024-03-24T08:31:44.486Z,10.81
2024-03-24T08:33:44.501Z,10.37
2024-03-24T08:35:44.511Z,10.00
2024-03-24T08:37:44.558Z,9.74
2024-03-24T08:39:44.545Z,9.53
2024-03-24T08:41:44.530Z,9.33
2024-03-24T08:43:44.536Z,8.80
2024-03-24T08:45:44.608Z,8.55
2024-03-24T08:48:47.211Z,8.41
2024-03-24T08:50:44.575Z,8.30
2024-03-24T08:52:44.602Z,8.61
2024-03-24T08:54:44.563Z,8.89
2024-03-24T08:56:44.568Z,9.09
2024-03-24T08:58:44.555Z,9.05
2024-03-24T09:00:44.600Z,9.02
2024-03-24T09:02:44.652Z,9.91
2024-03-24T09:04:44.574Z,10.18
2024-03-24T09:06:44.582Z,10.64
2024-03-24T09:08:44.626Z,12.41
2024-03-24T09:10:44.634Z,14.23
2024-03-24T09:12:44.594Z,16.10
2024-03-24T09:14:44.640Z,18.61
2024-03-24T09:16:44.621Z,21.28
2024-03-24T09:18:44.633Z,22.89
2024-03-24T09:20:44.677Z,24.34
2024-03-24T09:22:44.615Z,25.62
2024-03-24T09:24:44.646Z,26.35
2024-03-24T09:26:44.673Z,26.47
2024-03-24T09:28:44.700Z,26.64
2024-03-24T09:30:44.645Z,26.55
2024-03-24T09:32:44.706Z,25.74
2024-03-24T09:34:44.670Z,24.37
2024-03-24T09:36:44.729Z,22.72
2024-03-24T09:38:44.698Z,21.02
2024-03-24T09:40:44.675Z,19.63
2024-03-24T09:42:44.688Z,18.64
2024-03-24T09:44:44.732Z,18.08
2024-03-24T09:46:44.758Z,17.86
2024-03-24T09:48:44.696Z,17.66
2024-03-24T09:50:44.719Z,17.49
2024-03-24T09:52:44.730Z,17.24
2024-03-24T09:55:44.722Z,17.11
2024-03-24T09:57:46.124Z,16.74
2024-03-24T09:59:44.767Z,16.98
2024-03-24T10:01:44.730Z,17.51
2024-03-24T10:03:44.731Z,17.47
2024-03-24T10:05:44.782Z,17.21
2024-03-24T10:07:44.822Z,16.78
2024-03-24T10:09:44.742Z,16.46
2024-03-24T10:11:44.764Z,16.27
2024-03-24T10:13:44.799Z,16.08
2024-03-24T10:15:44.811Z,15.79
2024-03-24T10:17:44.801Z,15.33
2024-03-24T10:19:44.786Z,14.65
2024-03-24T10:21:44.787Z,14.36
2024-03-24T10:23:44.809Z,13.91
2024-03-24T10:25:44.825Z,13.57
2024-03-24T10:27:44.800Z,13.08
2024-03-24T10:29:44.801Z,12.81
2024-03-24T10:31:44.829Z,12.60
2024-03-24T10:33:44.851Z,12.33
2024-03-24T10:35:44.809Z,12.53
2024-03-24T10:37:44.817Z,13.06
2024-03-24T10:39:44.878Z,13.49
2024-03-24T10:41:44.887Z,13.76
2024-03-24T10:43:44.813Z,13.74
2024-03-24T10:45:44.846Z,13.62
2024-03-24T10:47:44.864Z,13.21
2024-03-24T10:49:44.889Z,12.76
2024-03-24T10:51:44.896Z,12.54
2024-03-24T10:53:44.864Z,12.19
2024-03-24T10:55:44.845Z,12.01
2024-03-24T10:57:44.877Z,11.91
2024-03-24T10:59:44.896Z,11.92
2024-03-24T11:01:44.870Z,11.85
2024-03-24T11:03:44.882Z,11.81
2024-03-24T11:05:44.924Z,11.93
2024-03-24T11:07:44.922Z,11.83
2024-03-24T11:09:44.916Z,11.89
2024-03-24T11:11:44.926Z,11.68
2024-03-24T11:13:44.899Z,11.08
2024-03-24T11:15:45.243Z,10.58
2024-03-24T11:17:44.950Z,10.32
2024-03-24T11:19:44.933Z,10.21
2024-03-24T11:21:44.954Z,10.16
2024-03-24T11:23:44.973Z,10.23
2024-03-24T11:25:44.969Z,10.25
2024-03-24T11:27:44.959Z,10.44
2024-03-24T11:29:44.941Z,10.64
2024-03-24T11:30:44.979Z,10.72
2024-03-24T11:32:44.936Z,10.68
2024-03-24T11:33:45.000Z,10.88
2024-03-24T11:34:44.961Z,11.04
2024-03-24T11:36:45.001Z,11.45
2024-03-24T11:38:45.023Z,11.72
2024-03-24T11:40:44.968Z,11.71
2024-03-24T11:43:45.080Z,11.67
2024-03-24T11:45:44.982Z,11.76
2024-03-24T11:48:44.997Z,11.85
2024-03-24T11:50:45.031Z,12.14
2024-03-24T11:52:45.006Z,12.41
2024-03-24T11:54:45.055Z,12.48
2024-03-24T11:56:45.054Z,12.42
2024-03-24T11:58:45.028Z,12.49
2024-03-24T12:00:45.045Z,12.84
2024-03-24T12:02:45.049Z,12.93
2024-03-24T12:04:45.060Z,12.69
2024-03-24T12:06:45.061Z,12.41
2024-03-24T12:08:45.045Z,12.36
2024-03-24T12:10:45.061Z,12.23
2024-03-24T12:12:45.076Z,12.24
2024-03-24T12:14:45.095Z,12.12
2024-03-24T12:16:45.499Z,12.30
2024-03-24T12:18:45.072Z,12.43
2024-03-24T12:20:45.097Z,12.42
2024-03-24T12:22:45.118Z,12.37
2024-03-24T12:24:45.077Z,12.45
2024-03-24T12:26:45.083Z,12.39
2024-03-24T12:28:45.141Z,12.41
2024-03-24T12:30:45.122Z,12.22
2024-03-24T12:32:45.089Z,12.31
2024-03-24T12:34:45.144Z,12.43
2024-03-24T12:36:45.171Z,12.67
2024-03-24T12:38:45.162Z,12.45
2024-03-24T12:40:45.123Z,12.31
2024-03-24T12:42:45.120Z,12.30
2024-03-24T12:44:45.125Z,12.05
2024-03-24T12:46:45.171Z,11.57
2024-03-24T12:48:45.162Z,11.57
2024-03-24T12:50:46.521Z,11.24
2024-03-24T12:52:45.164Z,11.10
2024-03-24T12:54:45.210Z,11.12
2024-03-24T12:56:45.190Z,11.21
2024-03-24T12:58:45.168Z,11.45
2024-03-24T13:00:45.190Z,11.29
2024-03-24T13:02:45.167Z,11.35
2024-03-24T13:04:45.215Z,11.31
2024-03-24T13:06:45.281Z,11.52
2024-03-24T13:08:45.192Z,11.81
2024-03-24T13:10:45.184Z,11.89
2024-03-24T13:12:45.231Z,11.71
2024-03-24T13:14:45.238Z,11.55
2024-03-24T13:16:45.223Z,11.44
2024-03-24T13:17:45.252Z,11.31
2024-03-24T13:19:45.268Z,11.11
2024-03-24T13:21:45.278Z,10.90
2024-03-24T13:23:45.239Z,10.60
2024-03-24T13:25:45.236Z,10.78
2024-03-24T13:27:45.297Z,10.87
2024-03-24T13:29:45.267Z,10.87
2024-03-24T13:31:45.273Z,11.03
2024-03-24T13:33:45.250Z,10.90
2024-03-24T13:35:45.293Z,11.11
2024-03-24T13:37:45.282Z,11.31
2024-03-24T13:39:45.312Z,11.47
2024-03-24T13:40:45.295Z,11.55
2024-03-24T13:41:45.301Z,11.68
2024-03-24T13:42:45.310Z,11.78
2024-03-24T13:43:45.282Z,11.85
2024-03-24T13:45:45.311Z,11.86
2024-03-24T13:46:45.330Z,11.88
2024-03-24T13:48:45.336Z,11.71
2024-03-24T13:50:45.404Z,11.69
2024-03-24T13:52:45.309Z,11.87
2024-03-24T13:54:45.312Z,11.96
2024-03-24T13:56:45.373Z,12.02
2024-03-24T13:58:45.348Z,11.99
2024-03-24T14:00:47.947Z,12.08
2024-03-24T14:02:45.319Z,12.20
2024-03-24T14:04:45.324Z,12.23
2024-03-24T14:06:45.435Z,12.29
2024-03-24T14:14:38.118Z,12.18
2024-03-24T14:14:45.316Z,12.10
2024-03-24T14:15:45.704Z,12.07
2024-03-24T14:16:45.347Z,12.04
2024-03-24T14:17:45.375Z,12.11
2024-03-24T14:19:45.393Z,12.04
2024-03-24T14:21:45.360Z,12.00
2024-03-24T14:22:45.379Z,12.02
2024-03-24T14:24:45.390Z,12.07
2024-03-24T14:25:45.412Z,12.10
2024-03-24T14:27:45.376Z,12.11
2024-03-24T14:29:45.403Z,12.24
2024-03-24T14:31:45.446Z,12.34
2024-03-24T14:33:45.439Z,12.44
2024-03-24T14:35:45.418Z,12.56
2024-03-24T14:36:45.444Z,12.57
2024-03-24T14:37:45.424Z,12.55
2024-03-24T14:38:45.445Z,12.54
2024-03-24T14:39:45.405Z,12.43
2024-03-24T14:40:45.437Z,12.29
2024-03-24T14:41:45.461Z,12.21
2024-03-24T14:43:45.470Z,11.98
2024-03-24T14:45:45.455Z,11.92
2024-03-24T14:46:45.454Z,11.93
2024-03-24T14:47:45.430Z,11.96
2024-03-24T14:48:45.469Z,11.84
2024-03-24T14:50:45.466Z,11.72
2024-03-24T14:52:45.465Z,11.73
2024-03-24T14:54:45.469Z,11.62
2024-03-24T14:56:45.503Z,11.44
2024-03-24T14:58:45.490Z,11.27
2024-03-24T15:00:45.509Z,10.93
2024-03-24T15:02:45.482Z,11.01
2024-03-24T15:04:45.484Z,11.04
2024-03-24T15:06:45.536Z,11.20
2024-03-24T15:08:45.524Z,11.19
2024-03-24T15:10:45.484Z,11.19
2024-03-24T15:12:45.509Z,10.86
2024-03-24T15:14:45.506Z,10.77
2024-03-24T15:16:45.553Z,10.81
2024-03-24T15:18:45.564Z,10.72
2024-03-24T15:20:45.526Z,10.66
2024-03-24T15:22:45.534Z,10.74
2024-03-24T15:24:45.595Z,10.91
2024-03-24T15:26:45.568Z,11.04
2024-03-24T15:28:45.563Z,11.24
2024-03-24T15:30:45.542Z,11.35
2024-03-24T15:32:45.579Z,11.24
2024-03-24T15:34:45.603Z,10.98
2024-03-24T15:36:45.551Z,10.69
2024-03-24T15:38:45.564Z,10.63
2024-03-24T15:40:45.597Z,10.62
2024-03-24T15:42:45.583Z,10.43
2024-03-24T15:45:45.602Z,10.58
2024-03-24T15:48:45.617Z,10.48
2024-03-24T15:50:48.001Z,10.40
2024-03-24T15:52:45.662Z,10.21
2024-03-24T15:54:45.639Z,10.16
2024-03-24T15:56:45.637Z,10.23
2024-03-24T15:57:45.623Z,10.21
2024-03-24T15:59:45.665Z,9.92
2024-03-24T16:00:45.626Z,9.83
2024-03-24T16:02:45.641Z,9.88
2024-03-24T16:04:45.670Z,9.80
2024-03-24T16:06:45.690Z,9.71
2024-03-24T16:08:45.623Z,9.47
2024-03-24T16:10:45.660Z,9.19
2024-03-24T16:12:45.650Z,9.07
2024-03-24T16:14:45.697Z,9.04
2024-03-24T16:16:45.699Z,8.93
2024-03-24T16:18:45.660Z,8.80
2024-03-24T16:20:45.686Z,9.00
2024-03-24T16:23:45.674Z,9.16
2024-03-24T16:25:45.682Z,9.07
2024-03-24T16:27:45.723Z,9.13
2024-03-24T16:29:45.726Z,9.27
2024-03-24T16:31:45.704Z,9.25
2024-03-24T16:33:45.715Z,9.07
2024-03-24T16:35:45.708Z,9.11
2024-03-24T16:37:45.743Z,9.09
2024-03-24T16:39:45.752Z,8.96
2024-03-24T16:41:45.766Z,9.01
2024-03-24T16:43:45.731Z,9.31
2024-03-24T16:45:45.759Z,9.20
2024-03-24T16:47:45.802Z,8.91
2024-03-24T16:49:45.752Z,8.93
2024-03-24T16:51:45.767Z,9.14
2024-03-24T16:53:45.780Z,9.16
2024-03-24T16:55:48.618Z,9.33
2024-03-24T16:57:45.763Z,9.44
2024-03-24T16:59:45.776Z,9.40
2024-03-24T17:01:45.783Z,9.28
2024-03-24T17:03:45.829Z,9.25
2024-03-24T17:05:45.813Z,9.37
2024-03-24T17:07:45.783Z,9.37
2024-03-24T17:09:45.820Z,9.41
2024-03-24T17:11:45.829Z,9.47
2024-03-24T17:14:45.819Z,9.40
2024-03-24T17:16:45.849Z,9.03
2024-03-24T17:18:45.843Z,9.03
2024-03-24T17:20:45.823Z,9.06
2024-03-24T17:22:45.811Z,9.14
2024-03-24T17:24:45.864Z,9.17
2024-03-24T17:26:45.875Z,9.08
2024-03-24T17:28:45.855Z,9.01
2024-03-24T17:30:48.265Z,9.06
2024-03-24T17:32:45.886Z,9.16
2024-03-24T17:34:45.891Z,9.31
2024-03-24T17:36:45.863Z,9.27
2024-03-24T17:38:45.884Z,9.33
2024-03-24T17:40:45.874Z,9.24
2024-03-24T17:42:45.927Z,9.11
2024-03-24T17:44:45.904Z,9.02
2024-03-24T17:46:45.875Z,8.87
2024-03-24T17:48:45.899Z,8.67
2024-03-24T17:50:45.927Z,8.73
2024-03-24T17:52:45.942Z,8.72
2024-03-24T17:54:45.904Z,8.70
2024-03-24T17:56:45.917Z,8.76
2024-03-24T17:58:46.378Z,8.71
2024-03-24T18:00:45.958Z,8.55
2024-03-24T18:02:45.952Z,8.55
2024-03-24T18:04:45.965Z,8.37
2024-03-24T18:07:45.944Z,8.38
2024-03-24T18:08:45.974Z,8.49
2024-03-24T18:09:45.949Z,8.55
2024-03-24T18:10:46.016Z,8.61
2024-03-24T18:12:45.948Z,8.54
2024-03-24T18:14:48.789Z,8.61
2024-03-24T18:16:45.982Z,8.51
2024-03-24T18:19:45.972Z,8.46
2024-03-24T18:22:48.170Z,8.41
2024-03-24T18:24:45.979Z,8.32
2024-03-24T18:26:45.986Z,8.15
2024-03-24T18:28:46.050Z,8.02
2024-03-24T18:30:46.039Z,8.09
2024-03-24T18:32:45.999Z,8.01
2024-03-24T18:34:46.016Z,7.92
2024-03-24T18:36:46.060Z,7.89
2024-03-24T18:38:46.067Z,7.79
2024-03-24T18:40:46.043Z,7.91
2024-03-24T18:42:46.051Z,7.93
2024-03-24T18:44:46.029Z,8.07
2024-03-24T18:46:46.078Z,8.23
2024-03-24T18:48:46.080Z,8.31
2024-03-24T18:51:46.083Z,8.36
2024-03-24T18:54:46.058Z,8.35
2024-03-24T18:56:46.092Z,8.33
2024-03-24T19:00:46.070Z,8.26
2024-03-24T19:02:46.081Z,8.23
2024-03-24T19:04:46.118Z,8.22
2024-03-24T19:06:46.114Z,8.43
2024-03-24T19:08:46.115Z,8.52
2024-03-24T19:10:46.099Z,8.50
2024-03-24T19:12:46.102Z,8.70
2024-03-24T19:14:46.112Z,8.75
2024-03-24T19:16:46.179Z,8.75
2024-03-24T19:18:46.143Z,8.76
2024-03-24T19:20:46.118Z,8.67
2024-03-24T19:22:46.136Z,8.62
2024-03-24T19:24:46.163Z,8.69
2024-03-24T19:26:46.164Z,8.70
2024-03-24T19:28:46.156Z,8.76
2024-03-24T19:30:46.158Z,8.48
2024-03-24T19:32:46.154Z,8.59
2024-03-24T19:34:46.225Z,8.73
2024-03-24T19:36:46.208Z,8.58
2024-03-24T19:38:46.158Z,8.49
2024-03-24T19:40:46.197Z,8.45
2024-03-24T19:42:46.429Z,8.57
2024-03-24T19:44:46.209Z,8.77
2024-03-24T19:46:46.285Z,8.78
2024-03-24T19:48:46.181Z,8.71
2024-03-24T19:50:46.226Z,8.67
2024-03-24T19:52:46.235Z,8.64
2024-03-24T19:54:46.328Z,8.58
2024-03-24T19:56:46.213Z,8.58
2024-03-24T19:58:46.254Z,8.60
2024-03-24T20:00:46.257Z,8.72
2024-03-24T20:02:47.036Z,8.68
2024-03-24T20:04:46.262Z,8.50
2024-03-24T20:06:46.229Z,8.53
2024-03-24T20:08:46.253Z,8.51
2024-03-24T20:10:46.285Z,8.43
2024-03-24T20:12:46.228Z,8.47
2024-03-24T20:14:46.246Z,8.47
2024-03-24T20:16:46.262Z,8.48
2024-03-24T20:18:46.285Z,8.36
2024-03-24T20:20:46.284Z,8.40
2024-03-24T20:22:46.316Z,8.55
2024-03-24T20:24:46.277Z,8.65
2024-03-24T20:26:46.278Z,8.68
2024-03-24T20:28:46.354Z,8.62
2024-03-24T20:30:46.315Z,8.68
2024-03-24T20:32:46.308Z,8.75
2024-03-24T20:34:46.314Z,8.85
2024-03-24T20:36:46.304Z,8.91
2024-03-24T20:38:46.337Z,8.84
2024-03-24T20:40:46.372Z,8.94
2024-03-24T20:42:46.314Z,8.92
2024-03-24T20:45:46.335Z,8.84
2024-03-24T20:47:46.321Z,8.94
2024-03-24T20:49:46.374Z,8.99
2024-03-24T20:51:46.387Z,8.95
2024-03-24T20:53:46.377Z,8.92
2024-03-24T20:55:46.359Z,8.83
2024-03-24T20:57:46.352Z,8.91
2024-03-24T20:59:46.353Z,8.92
2024-03-24T21:01:46.455Z,8.97
2024-03-24T21:03:46.404Z,8.89
2024-03-24T21:05:46.361Z,8.99
2024-03-24T21:07:46.428Z,9.17
2024-03-24T21:09:46.382Z,9.23
2024-03-24T21:11:46.414Z,9.13
2024-03-24T21:14:46.434Z,9.10
2024-03-24T21:16:46.444Z,9.12
2024-03-24T21:18:46.403Z,9.11
2024-03-24T21:20:46.414Z,9.19
2024-03-24T21:22:46.419Z,9.22
2024-03-24T21:24:46.452Z,9.24
2024-03-24T21:26:46.473Z,9.21
2024-03-24T21:28:46.431Z,9.19
2024-03-24T21:30:46.433Z,9.10
2024-03-24T21:32:46.439Z,9.14
2024-03-24T21:34:46.497Z,9.13
2024-03-24T21:36:46.492Z,9.16
2024-03-24T21:38:46.452Z,9.24
2024-03-24T21:39:46.493Z,9.31
2024-03-24T21:40:46.469Z,9.32
2024-03-24T21:41:46.460Z,9.33
2024-03-24T21:42:46.501Z,9.36
2024-03-24T21:45:46.475Z,9.32
2024-03-24T21:47:46.529Z,9.29
2024-03-24T21:49:46.513Z,9.24
2024-03-24T21:52:46.529Z,9.18
2024-03-24T21:54:46.553Z,9.14
2024-03-24T21:56:46.493Z,9.10
2024-03-24T21:58:46.542Z,9.06
2024-03-24T22:00:46.529Z,8.95
2024-03-24T22:02:46.545Z,8.92
2024-03-24T22:04:46.550Z,8.87
2024-03-24T22:06:55.946Z,8.86
2024-03-24T22:09:46.555Z,8.65
2024-03-24T22:11:46.543Z,8.59
2024-03-24T22:13:46.575Z,8.57
2024-03-24T22:15:46.575Z,8.43
2024-03-24T22:18:46.589Z,8.38
2024-03-24T22:20:46.584Z,8.43
2024-03-24T22:22:46.582Z,8.45
2024-03-24T22:24:46.545Z,8.47
2024-03-24T22:26:46.617Z,8.39
2024-03-24T22:28:46.616Z,8.28
2024-03-24T22:30:46.594Z,8.19
2024-03-24T22:32:46.586Z,8.06
2024-03-24T22:34:46.601Z,7.88
2024-03-24T22:36:46.637Z,7.75
2024-03-24T22:38:49.500Z,7.65
2024-03-24T22:40:47.593Z,7.64
2024-03-24T22:42:46.620Z,7.53
2024-03-24T22:44:46.646Z,7.56
2024-03-24T22:46:46.659Z,7.53
2024-03-24T22:48:46.634Z,7.57
2024-03-24T22:51:46.659Z,7.51
2024-03-24T22:55:46.662Z,7.56
2024-03-24T22:58:46.665Z,7.51
2024-03-24T23:00:46.660Z,7.29
2024-03-24T23:02:46.689Z,7.15
2024-03-24T23:06:46.723Z,7.16
2024-03-24T23:08:46.675Z,7.11
2024-03-24T23:10:46.727Z,6.81
2024-03-24T23:12:46.709Z,6.63
2024-03-24T23:14:46.688Z,6.70
2024-03-24T23:16:46.694Z,6.82
2024-03-24T23:18:46.699Z,6.91
2024-03-24T23:20:46.734Z,6.89
2024-03-24T23:22:46.745Z,6.85
2024-03-24T23:24:46.719Z,6.93
2024-03-24T23:26:46.739Z,6.91
2024-03-24T23:28:46.755Z,6.67
2024-03-24T23:30:46.783Z,6.35
2024-03-24T23:32:46.753Z,6.13
2024-03-24T23:34:46.756Z,5.87
2024-03-24T23:36:46.775Z,5.54
2024-03-24T23:38:46.772Z,5.40
2024-03-24T23:40:46.757Z,5.21
2024-03-24T23:42:46.768Z,5.28
2024-03-24T23:44:46.752Z,5.41
2024-03-24T23:46:46.790Z,5.41
2024-03-24T23:48:46.810Z,5.35
2024-03-24T23:50:46.772Z,5.44
2024-03-24T23:52:46.775Z,5.40
2024-03-24T23:55:46.790Z,5.39
2024-03-24T23:57:46.762Z,5.52
2024-03-24T23:59:46.828Z,5.66
